createdAt,value
2019-01-14T00:00:29.069Z,13.08
2019-01-14T00:02:56.394Z,12.65
2019-01-14T00:05:23.651Z,12.63
2019-01-14T00:07:50.889Z,12.53
2019-01-14T00:10:18.037Z,12.74
2019-01-14T00:12:44.956Z,12.54
2019-01-14T00:15:12.239Z,12.93
2019-01-14T00:17:39.114Z,12.83
2019-01-14T00:20:06.065Z,12.88
2019-01-14T00:22:33.388Z,12.83
2019-01-14T00:25:00.271Z,12.58
2019-01-14T00:27:27.249Z,12.74
2019-01-14T00:29:54.532Z,12.81
2019-01-14T00:32:21.677Z,12.91
2019-01-14T00:34:48.545Z,12.96
2019-01-14T00:37:16.401Z,12.90
2019-01-14T00:39:43.363Z,13.03
2019-01-14T00:42:10.248Z,12.48
2019-01-14T00:44:37.233Z,12.69
2019-01-14T00:47:04.142Z,12.73
2019-01-14T00:49:32.954Z,12.73
2019-01-14T00:52:00.121Z,12.87
2019-01-14T00:54:27.372Z,12.92
2019-01-14T00:56:54.523Z,13.09
2019-01-14T00:59:21.468Z,13.09
2019-01-14T01:01:48.416Z,13.02
2019-01-14T01:04:15.280Z,12.66
2019-01-14T01:06:43.320Z,12.66
2019-01-14T01:09:10.276Z,12.50
2019-01-14T01:11:37.183Z,12.76
2019-01-14T01:14:04.066Z,12.56
2019-01-14T01:16:30.940Z,12.66
2019-01-14T01:18:58.169Z,12.47
2019-01-14T01:21:25.136Z,12.23
2019-01-14T01:23:52.366Z,11.91
2019-01-14T01:26:19.299Z,12.30
2019-01-14T01:28:46.438Z,12.21
2019-01-14T01:31:13.590Z,12.11
2019-01-14T01:33:40.462Z,12.35
2019-01-14T01:36:07.336Z,12.20
2019-01-14T01:38:34.356Z,12.43
2019-01-14T01:41:02.282Z,12.30
2019-01-14T01:43:29.357Z,12.20
2019-01-14T01:45:56.318Z,12.36
2019-01-14T01:48:23.179Z,12.53
2019-01-14T01:50:50.056Z,12.62
2019-01-14T01:53:16.945Z,12.51
2019-01-14T01:55:43.889Z,12.52
2019-01-14T01:58:10.754Z,12.52
2019-01-14T02:00:38.198Z,12.54
2019-01-14T02:03:05.421Z,12.70
2019-01-14T02:05:32.589Z,11.99
2019-01-14T02:07:59.544Z,12.06
2019-01-14T02:10:26.441Z,12.30
2019-01-14T02:12:53.721Z,12.25
2019-01-14T02:15:20.610Z,12.31
2019-01-14T02:17:48.950Z,12.47
2019-01-14T02:20:15.830Z,12.53
2019-01-14T02:22:47.311Z,12.26
2019-01-14T02:25:14.501Z,12.39
2019-01-14T02:27:41.368Z,12.39
2019-01-14T02:30:08.710Z,12.28
2019-01-14T02:32:35.958Z,12.25
2019-01-14T02:35:02.894Z,12.54
2019-01-14T02:37:30.024Z,12.26
2019-01-14T02:39:57.993Z,11.99
2019-01-14T02:42:24.861Z,12.33
2019-01-14T02:44:52.032Z,12.40
2019-01-14T02:47:19.014Z,12.50
2019-01-14T02:49:47.819Z,12.36
2019-01-14T02:52:15.707Z,12.25
2019-01-14T02:54:42.589Z,12.12
2019-01-14T02:57:09.540Z,12.33
2019-01-14T02:59:36.755Z,12.23
2019-01-14T03:02:03.637Z,11.68
2019-01-14T03:04:30.947Z,11.96
2019-01-14T03:06:58.169Z,12.17
2019-01-14T03:09:25.378Z,12.12
2019-01-14T03:11:52.326Z,12.01
2019-01-14T03:14:19.599Z,12.12
2019-01-14T03:16:46.470Z,11.46
2019-01-14T03:19:13.748Z,11.10
2019-01-14T03:21:40.657Z,11.38
2019-01-14T03:24:07.543Z,11.40
2019-01-14T03:26:34.805Z,11.54
2019-01-14T03:29:02.044Z,11.87
2019-01-14T03:31:28.910Z,11.82
2019-01-14T03:33:55.804Z,12.05
2019-01-14T03:36:22.757Z,11.85
2019-01-14T03:38:49.712Z,11.27
2019-01-14T03:41:16.603Z,11.50
2019-01-14T03:43:43.828Z,11.53
2019-01-14T03:46:10.765Z,11.42
2019-01-14T03:48:37.653Z,11.81
2019-01-14T03:51:04.613Z,11.70
2019-01-14T03:53:31.910Z,11.62
2019-01-14T03:55:58.865Z,11.63
2019-01-14T03:58:25.795Z,11.75
2019-01-14T04:00:52.727Z,11.35
2019-01-14T04:03:19.661Z,11.41
2019-01-14T04:05:47.875Z,11.75
2019-01-14T04:08:15.114Z,11.74
2019-01-14T04:10:41.975Z,11.96
2019-01-14T04:13:08.858Z,11.83
2019-01-14T04:15:35.808Z,11.60
2019-01-14T04:18:03.021Z,11.79
2019-01-14T04:20:29.974Z,11.54
2019-01-14T04:22:56.954Z,11.41
2019-01-14T04:25:23.817Z,11.42
2019-01-14T04:27:51.105Z,11.36
2019-01-14T04:30:18.067Z,11.39
2019-01-14T04:32:45.286Z,11.41
2019-01-14T04:35:12.165Z,11.41
2019-01-14T04:37:39.120Z,11.23
2019-01-14T04:40:05.985Z,11.30
2019-01-14T04:42:33.856Z,11.70
2019-01-14T04:45:00.826Z,11.76
2019-01-14T04:47:27.823Z,11.65
2019-01-14T04:49:55.252Z,11.69
2019-01-14T04:52:22.620Z,11.53
2019-01-14T04:54:49.591Z,11.12
2019-01-14T04:57:16.653Z,11.38
2019-01-14T04:59:43.991Z,11.37
2019-01-14T05:02:11.207Z,11.54
2019-01-14T05:04:38.145Z,11.15
2019-01-14T05:07:05.408Z,11.41
2019-01-14T05:09:32.619Z,11.34
2019-01-14T05:11:59.549Z,11.50
2019-01-14T05:14:26.436Z,11.34
2019-01-14T05:16:53.398Z,10.91
2019-01-14T05:19:20.747Z,11.16
2019-01-14T05:21:48.677Z,11.22
2019-01-14T05:24:15.896Z,11.10
2019-01-14T05:26:42.786Z,10.84
2019-01-14T05:29:09.717Z,11.29
2019-01-14T05:31:36.975Z,11.39
2019-01-14T05:34:03.951Z,11.25
2019-01-14T05:36:30.984Z,11.09
2019-01-14T05:38:57.936Z,11.21
2019-01-14T05:41:25.390Z,11.47
2019-01-14T05:43:52.315Z,11.41
2019-01-14T05:46:19.197Z,11.11
2019-01-14T05:48:46.453Z,11.00
2019-01-14T05:51:13.313Z,11.10
2019-01-14T05:53:40.191Z,11.17
2019-01-14T05:56:07.110Z,11.13
2019-01-14T05:58:34.008Z,11.34
2019-01-14T06:01:00.908Z,11.19
2019-01-14T06:03:28.135Z,11.11
2019-01-14T06:05:55.479Z,11.15
2019-01-14T06:08:22.345Z,11.08
2019-01-14T06:10:49.585Z,10.97
2019-01-14T06:13:16.539Z,10.91
2019-01-14T06:15:43.465Z,11.22
2019-01-14T06:18:10.428Z,11.45
2019-01-14T06:20:37.658Z,11.08
2019-01-14T06:23:04.812Z,11.11
2019-01-14T06:25:31.711Z,11.35
2019-01-14T06:27:58.666Z,11.00
2019-01-14T06:30:25.962Z,11.09
2019-01-14T06:32:52.898Z,11.28
2019-01-14T06:35:20.062Z,11.37
2019-01-14T06:37:52.258Z,11.47
2019-01-14T06:40:16.404Z,11.39
2019-01-14T06:42:43.559Z,11.08
2019-01-14T06:45:10.815Z,11.21
2019-01-14T06:47:38.073Z,11.25
2019-01-14T06:50:05.045Z,11.13
2019-01-14T06:52:31.909Z,11.14
2019-01-14T06:54:58.774Z,11.10
2019-01-14T06:57:25.650Z,11.27
2019-01-14T06:59:52.911Z,11.31
2019-01-14T07:02:19.861Z,11.09
2019-01-14T07:04:46.799Z,11.20
2019-01-14T07:07:14.046Z,11.24
2019-01-14T07:09:41.008Z,11.20
2019-01-14T07:12:08.240Z,11.24
2019-01-14T07:14:35.235Z,11.23
2019-01-14T07:17:02.199Z,11.30
2019-01-14T07:19:29.156Z,11.06
2019-01-14T07:21:56.031Z,11.13
2019-01-14T07:24:23.377Z,11.20
2019-01-14T07:26:50.275Z,11.42
2019-01-14T07:29:17.218Z,11.38
2019-01-14T07:31:44.165Z,11.42
2019-01-14T07:34:11.094Z,11.27
2019-01-14T07:36:37.998Z,10.92
2019-01-14T07:39:05.958Z,11.15
2019-01-14T07:41:32.908Z,11.14
2019-01-14T07:44:00.159Z,10.88
2019-01-14T07:46:27.037Z,10.37
2019-01-14T07:48:54.285Z,10.74
2019-01-14T07:51:21.230Z,10.90
2019-01-14T07:53:48.473Z,11.04
2019-01-14T07:56:15.500Z,10.56
2019-01-14T07:58:42.443Z,10.79
2019-01-14T08:01:09.356Z,10.88
2019-01-14T08:03:36.277Z,10.80
2019-01-14T08:06:03.215Z,10.71
2019-01-14T08:08:30.430Z,10.66
2019-01-14T08:10:57.308Z,10.91
2019-01-14T08:13:24.241Z,10.67
2019-01-14T08:15:51.383Z,10.75
2019-01-14T08:18:18.275Z,10.72
2019-01-14T08:20:45.590Z,11.07
2019-01-14T08:23:12.831Z,11.12
2019-01-14T08:25:39.732Z,10.98
2019-01-14T08:28:06.934Z,10.70
2019-01-14T08:30:33.810Z,11.06
2019-01-14T08:33:01.132Z,10.91
2019-01-14T08:35:28.046Z,10.94
2019-01-14T08:37:55.318Z,10.76
2019-01-14T08:40:22.227Z,10.76
2019-01-14T08:42:49.566Z,10.57
2019-01-14T08:45:16.536Z,10.19
2019-01-14T08:47:43.655Z,10.78
2019-01-14T08:50:10.862Z,11.09
2019-01-14T08:52:37.791Z,11.39
2019-01-14T08:55:05.062Z,11.19
2019-01-14T08:57:31.921Z,11.29
2019-01-14T08:59:58.816Z,10.83
2019-01-14T09:02:26.101Z,11.03
2019-01-14T09:04:53.256Z,11.05
2019-01-14T09:07:20.416Z,11.39
2019-01-14T09:09:47.304Z,11.30
2019-01-14T09:12:14.192Z,11.30
2019-01-14T09:14:41.463Z,11.44
2019-01-14T09:17:08.412Z,11.45
2019-01-14T09:19:35.547Z,11.46
2019-01-14T09:22:02.815Z,11.55
2019-01-14T09:24:30.171Z,11.46
2019-01-14T09:26:57.407Z,10.83
2019-01-14T09:29:24.287Z,11.30
2019-01-14T09:31:51.603Z,11.27
2019-01-14T09:34:18.484Z,11.59
2019-01-14T09:36:46.537Z,11.52
2019-01-14T09:39:13.787Z,11.42
2019-01-14T09:41:40.758Z,10.69
2019-01-14T09:44:08.526Z,11.09
2019-01-14T09:46:35.464Z,11.34
2019-01-14T09:49:02.706Z,11.34
2019-01-14T09:51:29.665Z,10.93
2019-01-14T09:53:56.627Z,11.12
2019-01-14T09:56:23.936Z,11.34
2019-01-14T09:58:51.087Z,11.26
2019-01-14T10:01:17.967Z,11.25
2019-01-14T10:03:44.849Z,11.24
2019-01-14T10:06:12.085Z,11.20
2019-01-14T10:08:43.041Z,11.42
2019-01-14T10:11:08.280Z,10.97
2019-01-14T10:13:35.634Z,10.97
2019-01-14T10:16:02.888Z,10.78
2019-01-14T10:18:29.927Z,10.90
2019-01-14T10:20:57.182Z,11.23
2019-01-14T10:23:24.060Z,11.07
2019-01-14T10:25:51.026Z,11.28
2019-01-14T10:28:18.013Z,11.12
2019-01-14T10:30:44.965Z,11.11
2019-01-14T10:33:11.925Z,10.40
2019-01-14T10:35:38.877Z,10.78
2019-01-14T10:38:05.751Z,10.84
2019-01-14T10:40:33.072Z,11.05
2019-01-14T10:43:00.020Z,10.97
2019-01-14T10:45:27.256Z,11.16
2019-01-14T10:47:54.266Z,10.58
2019-01-14T10:50:21.264Z,10.58
2019-01-14T10:52:49.694Z,10.50
2019-01-14T10:55:17.198Z,10.63
2019-01-14T10:57:44.163Z,11.04
2019-01-14T11:00:11.382Z,10.84
2019-01-14T11:02:38.286Z,10.78
2019-01-14T11:05:05.490Z,10.99
2019-01-14T11:07:32.736Z,11.06
2019-01-14T11:10:00.002Z,10.90
2019-01-14T11:12:26.960Z,10.96
2019-01-14T11:14:55.102Z,10.86
2019-01-14T11:17:22.015Z,11.05
2019-01-14T11:19:48.887Z,10.86
2019-01-14T11:22:15.776Z,10.44
2019-01-14T11:24:42.991Z,10.66
2019-01-14T11:27:09.859Z,10.97
2019-01-14T11:29:36.721Z,10.74
2019-01-14T11:32:03.952Z,10.99
2019-01-14T11:34:30.905Z,11.13
2019-01-14T11:36:57.778Z,11.18
2019-01-14T11:39:24.664Z,11.53
2019-01-14T11:41:51.823Z,11.52
2019-01-14T11:44:18.977Z,11.79
2019-01-14T11:46:45.924Z,11.87
2019-01-14T11:49:12.877Z,11.63
2019-01-14T11:51:39.864Z,11.39
2019-01-14T11:54:07.046Z,11.55
2019-01-14T11:56:33.936Z,11.47
2019-01-14T11:59:00.989Z,11.00
2019-01-14T12:01:28.233Z,11.25
2019-01-14T12:03:55.324Z,11.31
2019-01-14T12:06:22.278Z,11.30
2019-01-14T12:08:49.242Z,10.74
2019-01-14T12:11:16.445Z,10.20
2019-01-14T12:13:43.381Z,10.55
2019-01-14T12:16:10.249Z,11.00
2019-01-14T12:18:37.451Z,11.09
2019-01-14T12:21:04.421Z,11.05
2019-01-14T12:23:31.404Z,10.80
2019-01-14T12:25:59.735Z,10.92
2019-01-14T12:28:26.662Z,11.02
2019-01-14T12:30:53.531Z,11.17
2019-01-14T12:33:20.874Z,10.92
2019-01-14T12:35:47.820Z,10.82
2019-01-14T12:38:15.070Z,10.89
2019-01-14T12:40:41.992Z,10.58
2019-01-14T12:43:08.886Z,10.54
2019-01-14T12:45:35.774Z,10.22
2019-01-14T12:48:02.748Z,10.01
2019-01-14T12:50:29.714Z,9.87
2019-01-14T12:52:56.930Z,10.10
2019-01-14T12:55:23.807Z,10.13
2019-01-14T12:57:50.697Z,10.63
2019-01-14T13:00:17.684Z,10.41
2019-01-14T13:02:44.910Z,10.55
2019-01-14T13:05:11.822Z,10.63
2019-01-14T13:07:39.117Z,10.91
2019-01-14T13:10:05.981Z,10.74
2019-01-14T13:12:32.865Z,10.91
2019-01-14T13:15:00.248Z,11.11
2019-01-14T13:17:27.173Z,10.81
2019-01-14T13:19:54.348Z,10.69
2019-01-14T13:22:21.231Z,10.84
2019-01-14T13:24:48.452Z,10.75
2019-01-14T13:27:15.357Z,10.55
2019-01-14T13:29:42.660Z,10.66
2019-01-14T13:32:09.894Z,10.16
2019-01-14T13:34:36.773Z,10.57
2019-01-14T13:37:03.655Z,10.73
2019-01-14T13:39:34.181Z,10.87
2019-01-14T13:41:59.278Z,10.55
2019-01-14T13:44:26.471Z,10.41
2019-01-14T13:46:53.718Z,10.51
2019-01-14T13:49:20.866Z,10.36
2019-01-14T13:51:47.800Z,10.21
2019-01-14T13:54:14.796Z,10.19
2019-01-14T13:56:41.734Z,10.35
2019-01-14T13:59:08.966Z,10.38
2019-01-14T14:01:35.845Z,10.62
2019-01-14T14:04:03.173Z,10.32
2019-01-14T14:06:30.057Z,10.36
2019-01-14T14:08:57.021Z,10.46
2019-01-14T14:11:24.308Z,10.29
2019-01-14T14:13:51.462Z,10.43
2019-01-14T14:16:18.622Z,10.35
2019-01-14T14:18:45.582Z,10.21
2019-01-14T14:21:12.515Z,10.27
2019-01-14T14:23:39.451Z,9.59
2019-01-14T14:26:06.346Z,9.23
2019-01-14T14:28:34.338Z,9.31
2019-01-14T14:31:01.620Z,9.21
2019-01-14T14:33:28.777Z,9.06
2019-01-14T14:35:56.013Z,9.09
2019-01-14T14:38:22.902Z,9.24
2019-01-14T14:40:50.228Z,9.26
2019-01-14T14:43:17.213Z,9.65
2019-01-14T14:45:44.094Z,9.76
2019-01-14T14:48:11.033Z,9.89
2019-01-14T14:50:38.970Z,9.71
2019-01-14T14:53:05.864Z,9.80
2019-01-14T14:55:32.832Z,10.09
2019-01-14T14:57:59.789Z,10.16
2019-01-14T15:00:26.722Z,9.97
2019-01-14T15:02:53.668Z,9.78
2019-01-14T15:05:20.852Z,9.86
2019-01-14T15:07:47.832Z,9.79
2019-01-14T15:10:14.775Z,9.94
2019-01-14T15:12:41.713Z,9.81
2019-01-14T15:15:08.898Z,9.82
2019-01-14T15:17:35.820Z,10.13
2019-01-14T15:20:02.746Z,10.12
2019-01-14T15:22:29.648Z,10.09
2019-01-14T15:24:56.518Z,10.01
2019-01-14T15:27:23.728Z,10.14
2019-01-14T15:29:51.766Z,9.93
2019-01-14T15:32:19.060Z,9.63
2019-01-14T15:34:46.161Z,9.90
2019-01-14T15:37:13.085Z,10.04
2019-01-14T15:39:40.089Z,9.75
2019-01-14T15:42:07.394Z,9.76
2019-01-14T15:44:34.809Z,9.84
2019-01-14T15:47:01.776Z,9.70
2019-01-14T15:49:28.752Z,9.60
2019-01-14T15:51:57.739Z,9.59
2019-01-14T15:54:24.684Z,9.59
2019-01-14T15:56:52.197Z,9.49
2019-01-14T15:59:19.186Z,9.41
2019-01-14T16:01:46.068Z,9.32
2019-01-14T16:04:12.998Z,9.30
2019-01-14T16:06:39.969Z,8.99
2019-01-14T16:09:07.144Z,8.89
2019-01-14T16:11:34.138Z,8.69
2019-01-14T16:14:01.315Z,9.14
2019-01-14T16:16:28.184Z,9.14
2019-01-14T16:18:55.162Z,8.92
2019-01-14T16:21:22.111Z,9.09
2019-01-14T16:23:49.096Z,8.98
2019-01-14T16:26:16.059Z,9.06
2019-01-14T16:28:42.991Z,9.04
2019-01-14T16:31:09.873Z,9.30
2019-01-14T16:33:37.097Z,9.10
2019-01-14T16:36:04.353Z,8.98
2019-01-14T16:38:31.491Z,8.94
2019-01-14T16:40:58.354Z,9.06
2019-01-14T16:43:25.233Z,9.13
2019-01-14T16:45:52.171Z,8.85
2019-01-14T16:48:19.406Z,8.91
2019-01-14T16:50:46.410Z,8.89
2019-01-14T16:53:13.273Z,8.90
2019-01-14T16:55:40.425Z,8.68
2019-01-14T16:58:07.314Z,8.94
2019-01-14T17:00:34.304Z,8.71
2019-01-14T17:03:01.444Z,8.88
2019-01-14T17:05:28.325Z,8.90
2019-01-14T17:07:55.986Z,9.04
2019-01-14T17:10:25.231Z,8.70
2019-01-14T17:12:51.472Z,8.72
2019-01-14T17:15:18.747Z,8.77
2019-01-14T17:17:45.831Z,8.99
2019-01-14T17:20:12.788Z,8.91
2019-01-14T17:22:39.734Z,8.46
2019-01-14T17:25:06.615Z,8.46
2019-01-14T17:27:33.777Z,8.81
2019-01-14T17:30:00.658Z,8.75
2019-01-14T17:32:27.617Z,9.10
2019-01-14T17:34:54.608Z,9.18
2019-01-14T17:37:21.462Z,8.88
2019-01-14T17:39:48.715Z,8.91
2019-01-14T17:42:15.574Z,8.66
2019-01-14T17:44:43.597Z,8.75
2019-01-14T17:47:11.005Z,8.79
2019-01-14T17:49:37.968Z,8.68
2019-01-14T17:52:04.829Z,8.91
2019-01-14T17:54:31.697Z,8.65
2019-01-14T17:56:58.617Z,8.49
2019-01-14T17:59:25.937Z,8.80
2019-01-14T18:01:53.284Z,8.69
2019-01-14T18:04:20.437Z,8.74
2019-01-14T18:06:47.672Z,8.98
2019-01-14T18:09:14.545Z,8.50
2019-01-14T18:11:41.431Z,8.53
2019-01-14T18:14:08.416Z,8.35
2019-01-14T18:16:35.682Z,8.72
2019-01-14T18:19:02.618Z,8.80
2019-01-14T18:21:29.618Z,8.79
2019-01-14T18:23:56.503Z,8.78
2019-01-14T18:26:23.452Z,8.49
2019-01-14T18:28:50.921Z,8.56
2019-01-14T18:31:17.862Z,8.48
2019-01-14T18:33:45.109Z,8.68
2019-01-14T18:36:12.004Z,8.57
2019-01-14T18:38:38.955Z,8.49
2019-01-14T18:41:07.156Z,8.41
2019-01-14T18:43:34.121Z,8.55
2019-01-14T18:46:02.706Z,8.52
2019-01-14T18:48:29.582Z,8.52
2019-01-14T18:50:56.455Z,8.71
2019-01-14T18:53:23.477Z,8.37
2019-01-14T18:55:50.442Z,8.41
2019-01-14T18:58:17.322Z,8.65
2019-01-14T19:00:44.232Z,8.57
2019-01-14T19:03:11.425Z,8.77
2019-01-14T19:05:38.675Z,8.56
2019-01-14T19:08:05.563Z,8.60
2019-01-14T19:10:32.978Z,8.22
2019-01-14T19:13:00.130Z,8.12
2019-01-14T19:15:27.410Z,8.26
2019-01-14T19:17:54.761Z,8.37
2019-01-14T19:20:22.105Z,8.46
2019-01-14T19:22:49.079Z,8.56
2019-01-14T19:25:16.006Z,8.36
2019-01-14T19:27:42.908Z,8.45
2019-01-14T19:30:09.799Z,8.61
2019-01-14T19:32:38.643Z,8.78
2019-01-14T19:35:05.615Z,8.79
2019-01-14T19:37:32.868Z,8.74
2019-01-14T19:40:00.166Z,8.52
2019-01-14T19:42:27.086Z,8.43
2019-01-14T19:44:54.017Z,8.17
2019-01-14T19:47:21.009Z,8.32
2019-01-14T19:49:48.411Z,8.41
2019-01-14T19:52:15.285Z,8.65
2019-01-14T19:54:42.630Z,8.57
2019-01-14T19:57:09.885Z,8.41
2019-01-14T19:59:36.794Z,8.66
2019-01-14T20:02:04.589Z,8.64
2019-01-14T20:04:31.726Z,8.43
2019-01-14T20:06:59.658Z,8.30
2019-01-14T20:09:26.660Z,8.26
2019-01-14T20:11:53.915Z,8.15
2019-01-14T20:14:20.861Z,8.32
2019-01-14T20:16:47.765Z,8.49
2019-01-14T20:19:14.715Z,8.70
2019-01-14T20:21:41.889Z,8.17
2019-01-14T20:24:09.259Z,8.35
2019-01-14T20:26:38.790Z,8.31
2019-01-14T20:29:05.991Z,8.21
2019-01-14T20:31:33.246Z,7.87
2019-01-14T20:34:00.528Z,7.98
2019-01-14T20:36:27.885Z,8.05
2019-01-14T20:38:55.230Z,8.00
2019-01-14T20:43:56.493Z,8.02
2019-01-14T20:46:25.871Z,8.24
2019-01-14T20:48:54.418Z,8.37
2019-01-14T20:51:21.837Z,8.62
2019-01-14T20:56:30.042Z,8.55
2019-01-14T20:58:56.954Z,8.43
2019-01-14T21:01:24.266Z,8.23
2019-01-14T21:03:56.615Z,8.57
2019-01-14T21:06:23.921Z,8.70
2019-01-14T21:08:51.254Z,8.63
2019-01-14T21:11:23.836Z,8.33
2019-01-14T21:13:46.821Z,8.45
2019-01-14T21:16:14.016Z,8.68
2019-01-14T21:18:41.479Z,8.79
2019-01-14T21:21:08.749Z,8.37
2019-01-14T21:23:36.002Z,8.61
2019-01-14T21:26:03.232Z,8.67
2019-01-14T21:28:30.477Z,8.64
2019-01-14T21:30:57.382Z,8.45
2019-01-14T21:33:24.752Z,8.44
2019-01-14T21:35:52.031Z,8.61
2019-01-14T21:38:18.902Z,8.50
2019-01-14T21:40:46.130Z,8.25
2019-01-14T21:43:13.043Z,8.16
2019-01-14T21:45:39.996Z,8.10
2019-01-14T21:48:06.965Z,8.26
2019-01-14T21:50:34.213Z,8.60
2019-01-14T21:53:01.105Z,8.55
2019-01-14T21:55:29.450Z,8.60
2019-01-14T21:57:56.431Z,8.41
2019-01-14T22:00:23.748Z,8.47
2019-01-14T22:02:51.006Z,8.35
2019-01-14T22:05:17.968Z,8.38
2019-01-14T22:07:44.968Z,8.87
2019-01-14T22:10:11.896Z,8.62
2019-01-14T22:12:39.201Z,8.38
2019-01-14T22:15:06.454Z,8.43
2019-01-14T22:17:33.387Z,8.50
2019-01-14T22:20:00.542Z,8.53
2019-01-14T22:22:27.475Z,8.66
2019-01-14T22:24:54.381Z,8.68
2019-01-14T22:27:21.947Z,8.66
2019-01-14T22:29:49.151Z,8.90
2019-01-14T22:32:16.101Z,8.88
2019-01-14T22:34:43.335Z,8.51
2019-01-14T22:37:10.202Z,8.61
2019-01-14T22:39:37.178Z,8.47
2019-01-14T22:42:04.372Z,8.37
2019-01-14T22:44:31.269Z,8.40
2019-01-14T22:46:59.115Z,8.55
2019-01-14T22:49:25.989Z,8.57
2019-01-14T22:51:53.280Z,8.86
2019-01-14T22:54:20.164Z,8.66
2019-01-14T22:56:47.389Z,8.54
2019-01-14T22:59:14.375Z,8.63
2019-01-14T23:01:41.708Z,8.91
2019-01-14T23:04:08.667Z,8.97
2019-01-14T23:06:35.873Z,8.87
2019-01-14T23:09:03.052Z,8.68
2019-01-14T23:11:31.623Z,8.77
2019-01-14T23:13:58.873Z,8.45
2019-01-14T23:16:25.806Z,8.65
2019-01-14T23:18:52.656Z,8.51
2019-01-14T23:21:19.570Z,8.49
2019-01-14T23:23:46.504Z,8.65
2019-01-14T23:26:13.457Z,8.73
2019-01-14T23:28:40.657Z,8.90
2019-01-14T23:31:07.585Z,8.85
2019-01-14T23:33:34.506Z,8.71
2019-01-14T23:36:01.805Z,8.64
2019-01-14T23:38:29.055Z,8.87
2019-01-14T23:40:56.309Z,8.83
2019-01-14T23:43:23.245Z,8.80
2019-01-14T23:45:50.490Z,8.74
2019-01-14T23:48:17.762Z,8.69
2019-01-14T23:50:44.658Z,8.79
2019-01-14T23:53:11.943Z,8.76
2019-01-14T23:55:38.836Z,8.98
2019-01-14T23:58:06.153Z,8.82
